SBRJ/SDU METAR and TAF weather

Enter ICAO airport designator
Station Type Date Time Source
SBRJ METAR 2020/09/22 21:20 UTC NOAA

SBRJ 222120Z 14012KT 6000 -RA BKN010 OVC015 20/18 Q1023 RERA


Station Type Date Time Source
SBRJ Decoded METAR 2020/09/22 21:20 UTC NOAA

Rio De Janeiro Aeroporto , Brazil (SBRJ) 22-54S 043-10W
Sep 22, 2020 - 05:20 PM EDT / 2020.09.22 2120 UTC
Wind: from the SE (140 degrees) at 14 MPH (12 KT):0
Visibility: 3 mile(s):0
Sky conditions: overcast
Weather: light rain
Temperature: 68 F (20 C)
Dew Point: 64 F (18 C)
Relative Humidity: 88%
Pressure (altimeter): 30.21 in. Hg (1023 hPa)
ob: SBRJ 222120Z 14012KT 6000 -RA BKN010 OVC015 20/18 Q1023 RERA
cycle: 21

Station Type Date Time Source
SBRJ TAF 2020/09/22 18:27 UTC NOAA

TAF SBRJ 221520Z 2218/2306 16015KT 4000 RA BR OVC010 TX23/2218Z TN21/2302Z
TEMPO 2218/2223 17017G33KT 1200 SHRA OVC007
BECMG 2223/2301 32010KT 6000 NSW BKN010 OVC017 PROB40 2302/2306 34005KT 3000 DZ BR OVC010
RMK PHN

Example: see airport list